Time;durP1;ratioP1;P1;durP2;ratioP2;P2;SDS_P1;SDS_P2;PMS_P1;PMS_P2;Temp;Humidity;BMP_temperature;BMP_pressure;BME280_temperature;BME280_humidity;BME280_pressure;Samples;Min_cycle;Max_cycle;Signal;HPM_P1;HPM_P2
2022/11/21 03:47:49;;;;;;;1.90;0.00;;;7.10;86.80;;;;;;5062784;23;87332;-74
2022/11/21 03:50:17;;;;;;;0.80;0.00;;;7.10;87.30;;;;;;4803926;29;86945;-73
2022/11/21 03:52:43;;;;;;;0.63;0.10;;;7.10;87.40;;;;;;4798938;29;87022;-74
2022/11/21 03:55:09;;;;;;;0.52;0.10;;;7.10;88.40;;;;;;4808296;29;86220;-75
2022/11/21 03:57:34;;;;;;;2.25;0.10;;;7.00;88.40;;;;;;4815615;29;86513;-78
2022/11/21 04:00:00;;;;;;;0.70;0.10;;;7.00;88.80;;;;;;4807672;29;86781;-77
2022/11/21 04:02:25;;;;;;;2.03;0.00;;;7.00;89.30;;;;;;4806398;29;88208;-75
2022/11/21 04:04:51;;;;;;;0.55;0.10;;;7.00;88.60;;;;;;4808153;29;87976;-75
2022/11/21 04:07:17;;;;;;;1.23;0.20;;;7.00;88.60;;;;;;4824292;29;87063;-73
2022/11/21 04:09:42;;;;;;;0.40;0.00;;;6.90;87.80;;;;;;4809093;29;86969;-74
2022/11/21 04:12:09;;;;;;;1.15;0.00;;;6.90;87.60;;;;;;4802575;29;88300;-75
2022/11/21 04:14:35;;;;;;;1.17;0.10;;;6.90;87.60;;;;;;4805912;29;86902;-74
2022/11/21 04:17:01;;;;;;;0.20;0.00;;;6.90;88.30;;;;;;4803260;29;86725;-76
2022/11/21 04:19:26;;;;;;;0.28;0.00;;;6.90;87.10;;;;;;4825431;29;85569;-73
2022/11/21 04:21:52;;;;;;;0.68;0.00;;;6.90;87.30;;;;;;4809166;29;87411;-73
2022/11/21 04:24:18;;;;;;;0.30;0.00;;;7.00;87.20;;;;;;4806436;29;87306;-73
2022/11/21 04:26:43;;;;;;;0.70;0.05;;;7.00;86.90;;;;;;4805921;29;87929;-74
2022/11/21 04:29:09;;;;;;;0.52;0.00;;;7.00;87.30;;;;;;4805072;29;87444;-73
2022/11/21 04:31:35;;;;;;;0.85;0.08;;;7.10;87.50;;;;;;4818924;29;87158;-76
2022/11/21 04:34:01;;;;;;;0.30;0.00;;;7.10;87.40;;;;;;4806927;29;86575;-73
2022/11/21 04:36:26;;;;;;;0.30;0.00;;;7.10;87.90;;;;;;4806978;29;86641;-74
2022/11/21 04:38:52;;;;;;;0.77;0.00;;;7.10;87.70;;;;;;4803603;29;86758;-73
2022/11/21 04:41:18;;;;;;;0.45;0.00;;;7.10;87.90;;;;;;4794393;29;87298;-73
2022/11/21 04:43:43;;;;;;;0.43;0.03;;;7.10;87.30;;;;;;4795260;29;86239;-77
2022/11/21 04:46:09;;;;;;;0.50;0.00;;;7.00;88.40;;;;;;4793438;29;86728;-75
2022/11/21 04:48:35;;;;;;;0.52;0.00;;;7.00;88.20;;;;;;4795335;29;87319;-76
2022/11/21 04:51:00;;;;;;;1.70;0.08;;;7.00;88.50;;;;;;4803485;29;88360;-75
2022/11/21 04:53:26;;;;;;;0.20;0.00;;;7.00;87.30;;;;;;4791895;29;87055;-74
2022/11/21 04:55:52;;;;;;;0.43;0.10;;;7.00;87.80;;;;;;4801496;29;86323;-75
2022/11/21 04:58:17;;;;;;;0.50;0.10;;;7.00;86.90;;;;;;4797353;29;86745;-76
2022/11/21 05:00:43;;;;;;;2.28;0.00;;;7.00;87.10;;;;;;4792849;29;87414;-76
2022/11/21 05:03:09;;;;;;;0.93;0.10;;;7.00;87.60;;;;;;4793219;29;87046;-76
2022/11/21 05:05:35;;;;;;;0.60;0.00;;;7.00;87.80;;;;;;4808644;29;86838;-76
2022/11/21 05:08:00;;;;;;;0.73;0.00;;;7.00;87.40;;;;;;4806021;29;86180;-77
2022/11/21 05:10:26;;;;;;;1.10;0.10;;;7.00;87.80;;;;;;4804692;29;86662;-76
2022/11/21 05:15:44;;;;;;;1.85;0.10;;;7.00;88.80;;;;;;4810679;29;88303;-75
2022/11/21 05:18:10;;;;;;;2.90;0.85;;;7.00;87.90;;;;;;4800093;29;86663;-75
2022/11/21 05:20:36;;;;;;;2.78;0.10;;;7.00;88.20;;;;;;4798942;29;86750;-75
2022/11/21 05:23:01;;;;;;;0.73;0.10;;;7.00;88.30;;;;;;4803742;29;86929;-75
2022/11/21 05:25:27;;;;;;;1.65;0.30;;;7.00;88.80;;;;;;4805787;29;86738;-75
2022/11/21 05:27:56;;;;;;;0.85;0.10;;;7.00;88.80;;;;;;4805963;29;86684;-76
2022/11/21 05:30:22;;;;;;;1.27;0.10;;;6.90;88.80;;;;;;4805830;29;87243;-76
2022/11/21 05:32:47;;;;;;;0.82;0.10;;;6.90;89.40;;;;;;4807912;29;86204;-75
2022/11/21 05:35:13;;;;;;;0.77;0.05;;;6.90;88.80;;;;;;4803297;29;86944;-75
2022/11/21 05:37:38;;;;;;;0.70;0.10;;;6.90;88.70;;;;;;4805323;29;86321;-76
2022/11/21 05:40:05;;;;;;;2.05;0.10;;;6.80;89.40;;;;;;4808391;29;88318;-76
2022/11/21 05:45:14;;;;;;;2.33;0.10;;;6.80;89.40;;;;;;4806194;29;86551;-76
2022/11/21 05:47:41;;;;;;;0.77;0.10;;;6.80;89.70;;;;;;4798238;29;87703;-76
2022/11/21 05:50:07;;;;;;;1.05;0.17;;;6.80;89.70;;;;;;4805367;29;86737;-76
2022/11/21 05:52:32;;;;;;;0.93;0.10;;;6.80;89.00;;;;;;4804901;29;86766;-76
2022/11/21 05:54:58;;;;;;;1.30;0.20;;;6.80;89.70;;;;;;4810626;29;86292;-76
2022/11/21 05:57:24;;;;;;;1.13;0.10;;;6.80;89.40;;;;;;4801710;29;86232;-76
2022/11/21 05:59:49;;;;;;;2.20;0.10;;;6.70;89.30;;;;;;4804623;29;87482;-76
2022/11/21 06:04:59;;;;;;;0.60;0.10;;;6.70;90.00;;;;;;4797781;29;87948;-76
2022/11/21 06:07:25;;;;;;;3.42;0.10;;;6.60;90.10;;;;;;4797760;29;86235;-75
2022/11/21 06:09:50;;;;;;;1.33;0.05;;;6.70;90.20;;;;;;4800702;29;87365;-75
2022/11/21 06:12:16;;;;;;;1.95;0.10;;;6.70;90.30;;;;;;4798474;29;87397;-75
2022/11/21 06:14:41;;;;;;;0.40;0.05;;;6.70;90.00;;;;;;4796628;29;86796;-76
2022/11/21 06:17:07;;;;;;;0.80;0.10;;;6.70;89.80;;;;;;4799736;29;87010;-77
2022/11/21 06:19:33;;;;;;;0.90;0.10;;;6.70;89.90;;;;;;4802157;29;86586;-77
2022/11/21 06:21:58;;;;;;;0.43;0.00;;;6.80;90.00;;;;;;4803319;29;86960;-77
2022/11/21 06:24:24;;;;;;;1.60;0.10;;;6.80;90.00;;;;;;4804820;29;87062;-76
2022/11/21 06:26:49;;;;;;;0.30;0.00;;;6.80;89.50;;;;;;4802160;29;88167;-76
2022/11/21 06:29:15;;;;;;;1.35;0.10;;;6.80;89.40;;;;;;4797697;29;88233;-76
2022/11/21 06:31:41;;;;;;;1.60;0.30;;;6.80;89.60;;;;;;4802901;29;87706;-76
2022/11/21 06:34:07;;;;;;;2.33;0.00;;;6.90;88.70;;;;;;4802986;29;86700;-76
2022/11/21 06:36:32;;;;;;;0.80;0.00;;;6.90;89.00;;;;;;4801327;29;88781;-76
2022/11/21 06:38:58;;;;;;;1.05;0.00;;;6.90;88.30;;;;;;4806315;29;87708;-75
2022/11/21 06:41:25;;;;;;;0.68;0.10;;;7.00;88.20;;;;;;4804824;29;87146;-76
2022/11/21 06:43:52;;;;;;;1.88;0.10;;;7.00;87.40;;;;;;4809814;29;86695;-77
2022/11/21 06:46:17;;;;;;;1.30;0.10;;;7.00;86.90;;;;;;4805339;29;86198;-76
2022/11/21 06:48:43;;;;;;;1.73;0.20;;;7.10;86.70;;;;;;4799133;29;86693;-76
2022/11/21 06:51:17;;;;;;;1.83;0.10;;;7.20;86.80;;;;;;4803987;29;87500;-76
2022/11/21 06:53:43;;;;;;;1.65;0.10;;;7.20;86.50;;;;;;4804107;29;87735;-77
2022/11/21 06:56:09;;;;;;;2.58;0.30;;;7.30;86.00;;;;;;4797774;29;86739;-76
2022/11/21 06:58:34;;;;;;;2.00;0.13;;;7.30;86.20;;;;;;4795463;29;87908;-74
2022/11/21 07:01:08;;;;;;;2.65;0.50;;;7.40;86.10;;;;;;4796221;29;87109;-76
2022/11/21 07:03:34;;;;;;;3.97;0.80;;;7.50;85.80;;;;;;4797436;29;86991;-76
2022/11/21 07:06:01;;;;;;;6.65;1.80;;;7.50;85.60;;;;;;4805954;29;87029;-77
2022/11/21 07:08:28;;;;;;;7.07;1.20;;;7.60;85.70;;;;;;4809266;29;87503;-76
2022/11/21 07:10:54;;;;;;;4.13;1.20;;;7.60;85.70;;;;;;4807254;29;86986;-76
2022/11/21 07:13:20;;;;;;;2.28;0.10;;;7.70;85.60;;;;;;4804245;29;86644;-78
2022/11/21 07:15:49;;;;;;;3.30;0.50;;;7.70;85.30;;;;;;4806310;29;88086;-78
2022/11/21 07:18:15;;;;;;;2.47;0.30;;;7.70;84.40;;;;;;4804514;29;88555;-76
2022/11/21 07:20:40;;;;;;;2.58;0.22;;;7.60;84.40;;;;;;4799405;29;88078;-77
2022/11/21 07:23:07;;;;;;;2.08;0.20;;;7.60;84.60;;;;;;4808197;29;87449;-78
2022/11/21 07:25:33;;;;;;;0.93;0.10;;;7.70;84.20;;;;;;4810003;29;86811;-78
2022/11/21 07:27:59;;;;;;;2.15;0.40;;;7.70;84.20;;;;;;4804407;29;87404;-77
2022/11/21 07:30:25;;;;;;;2.58;0.32;;;7.70;84.10;;;;;;4812275;29;86310;-77
2022/11/21 07:33:02;;;;;;;1.90;0.10;;;7.80;83.90;;;;;;4809690;29;87610;-77
2022/11/21 07:35:28;;;;;;;1.83;0.40;;;7.80;84.00;;;;;;4799259;29;86467;-77
2022/11/21 07:37:54;;;;;;;5.55;0.25;;;7.80;84.30;;;;;;4807015;29;86744;-77
2022/11/21 07:40:20;;;;;;;4.22;1.50;;;7.80;84.70;;;;;;4811487;29;87193;-77
2022/11/21 07:42:46;;;;;;;1.17;0.20;;;7.80;84.30;;;;;;4808296;29;89306;-77
2022/11/21 07:45:13;;;;;;;0.90;0.10;;;7.80;84.30;;;;;;4808754;29;86462;-78
2022/11/21 07:47:40;;;;;;;4.88;2.80;;;7.70;83.30;;;;;;4802954;29;87434;-77
2022/11/21 07:50:07;;;;;;;3.78;2.28;;;7.70;83.90;;;;;;4805063;29;86757;-76
2022/11/21 07:52:33;;;;;;;1.40;0.10;;;7.70;84.70;;;;;;4802600;29;86725;-77
2022/11/21 07:55:01;;;;;;;0.70;0.10;;;7.80;83.70;;;;;;4807395;29;86652;-78
2022/11/21 07:57:27;;;;;;;1.55;0.10;;;7.70;84.10;;;;;;4808271;29;87308;-78
2022/11/21 07:59:53;;;;;;;1.33;0.10;;;7.80;84.30;;;;;;4807273;29;87502;-78
2022/11/21 08:02:23;;;;;;;1.77;0.10;;;7.80;83.90;;;;;;4806032;29;86354;-77
2022/11/21 08:04:49;;;;;;;1.70;0.10;;;7.90;83.40;;;;;;4803683;29;86870;-75
2022/11/21 08:07:16;;;;;;;1.83;0.20;;;7.90;83.20;;;;;;4807290;29;87735;-78
2022/11/21 08:09:42;;;;;;;3.13;0.10;;;7.90;82.90;;;;;;4796719;29;87988;-77
2022/11/21 08:12:09;;;;;;;1.88;0.20;;;8.00;82.90;;;;;;4811178;29;86868;-77
2022/11/21 08:14:35;;;;;;;2.08;0.20;;;8.10;82.40;;;;;;4810363;29;86291;-77
2022/11/21 08:17:01;;;;;;;1.50;0.10;;;8.20;82.30;;;;;;4806665;29;86923;-75
2022/11/21 08:19:26;;;;;;;2.13;0.10;;;8.30;82.40;;;;;;4797139;29;86620;-77
2022/11/21 08:21:52;;;;;;;0.85;0.00;;;8.50;80.90;;;;;;4793188;29;87612;-75
2022/11/21 08:24:18;;;;;;;1.80;0.10;;;8.60;80.50;;;;;;4802318;29;86233;-76
2022/11/21 08:26:44;;;;;;;2.35;0.10;;;9.00;79.50;;;;;;4805381;29;86580;-75
2022/11/21 08:29:11;;;;;;;0.82;0.10;;;9.40;77.60;;;;;;4806888;29;88265;-78
2022/11/21 08:31:38;;;;;;;0.85;0.10;;;9.70;77.70;;;;;;4811787;29;87765;-76
2022/11/21 08:34:03;;;;;;;2.47;0.10;;;9.70;76.30;;;;;;4802771;29;86599;-76
2022/11/21 08:36:29;;;;;;;1.38;0.10;;;9.50;76.60;;;;;;4805992;29;88534;-74
2022/11/21 08:38:55;;;;;;;0.77;0.10;;;9.40;77.10;;;;;;4801348;29;87300;-77
2022/11/21 08:44:05;;;;;;;1.05;0.00;;;9.10;77.70;;;;;;4807908;29;86281;-77
2022/11/21 08:46:35;;;;;;;2.33;0.10;;;9.00;78.30;;;;;;4805847;29;87389;-78
2022/11/21 08:49:02;;;;;;;0.73;0.00;;;9.00;77.70;;;;;;4804523;29;87435;-76
2022/11/21 08:51:28;;;;;;;1.50;0.10;;;8.90;78.40;;;;;;4801969;29;87418;-78
2022/11/21 08:53:53;;;;;;;1.33;0.10;;;8.90;77.80;;;;;;4807866;29;86451;-76
2022/11/21 08:56:19;;;;;;;2.40;0.00;;;8.90;78.30;;;;;;4807475;29;88207;-77
2022/11/21 08:58:45;;;;;;;1.25;0.10;;;9.00;78.30;;;;;;4808090;29;87950;-77
2022/11/21 09:01:10;;;;;;;1.55;0.00;;;9.00;78.20;;;;;;4807735;29;86431;-77
2022/11/21 09:03:36;;;;;;;0.80;0.00;;;9.00;77.50;;;;;;4804987;29;86309;-78
2022/11/21 09:06:02;;;;;;;0.90;0.00;;;9.10;77.70;;;;;;4808810;29;87613;-77
2022/11/21 09:08:29;;;;;;;2.08;0.00;;;9.10;78.00;;;;;;4808593;29;87503;-76
2022/11/21 09:10:54;;;;;;;2.75;0.10;;;9.20;77.70;;;;;;4802989;29;86323;-76
2022/11/21 09:13:20;;;;;;;2.05;0.05;;;9.30;76.90;;;;;;4805731;29;86136;-77
2022/11/21 09:18:30;;;;;;;1.58;0.00;;;9.50;76.20;;;;;;4807856;29;86902;-76
2022/11/21 09:20:56;;;;;;;1.27;0.00;;;9.70;76.30;;;;;;4808141;29;87198;-76
2022/11/21 09:23:21;;;;;;;1.17;0.00;;;9.90;75.30;;;;;;4801601;29;86268;-75
2022/11/21 09:25:47;;;;;;;2.85;0.03;;;10.10;74.10;;;;;;4808410;29;87668;-77
2022/11/21 09:28:13;;;;;;;1.38;0.10;;;10.30;72.90;;;;;;4808412;29;86783;-75
2022/11/21 09:30:40;;;;;;;0.90;0.10;;;11.20;71.10;;;;;;4812070;29;86812;-76
2022/11/21 09:33:09;;;;;;;0.85;0.10;;;11.60;70.30;;;;;;4806597;29;86574;-75
2022/11/21 09:35:35;;;;;;;1.27;0.10;;;12.50;66.80;;;;;;4802458;29;87129;-75
2022/11/21 09:38:01;;;;;;;1.45;0.20;;;13.20;65.60;;;;;;4806926;29;86008;-75
2022/11/21 09:40:29;;;;;;;0.77;0.03;;;13.80;63.40;;;;;;4806416;29;86374;-75
2022/11/21 09:43:16;;;;;;;2.28;0.03;;;14.00;62.50;;;;;;4806580;29;86676;-75
2022/11/21 09:46:04;;;;;;;2.55;0.10;;;14.00;61.10;;;;;;4807603;29;89392;-76
2022/11/21 09:48:38;;;;;;;1.30;0.20;;;13.60;61.50;;;;;;4796894;29;87376;-76
2022/11/21 09:51:10;;;;;;;1.17;0.30;;;13.40;62.40;;;;;;4803783;29;86804;-76
2022/11/21 09:53:47;;;;;;;2.10;0.20;;;13.20;63.40;;;;;;4805341;29;86381;-76
2022/11/21 09:56:18;;;;;;;0.82;0.10;;;13.10;63.60;;;;;;4808455;29;87253;-77
2022/11/21 09:59:20;;;;;;;1.23;0.03;;;12.60;63.90;;;;;;4809820;29;86541;-78
2022/11/21 10:01:46;;;;;;;0.70;0.10;;;12.60;64.00;;;;;;4796564;29;87667;-75
2022/11/21 10:04:12;;;;;;;0.93;0.05;;;12.60;64.80;;;;;;4805992;29;86170;-76
2022/11/21 10:06:56;;;;;;;0.93;0.00;;;12.70;63.40;;;;;;4804195;29;86978;-75
2022/11/21 10:09:33;;;;;;;0.60;0.00;;;12.50;62.90;;;;;;4803870;29;87156;-75
2022/11/21 10:15:38;;;;;;;2.03;0.10;;;12.50;64.50;;;;;;4801237;29;86996;-75
2022/11/21 10:18:16;;;;;;;0.38;0.03;;;12.60;64.20;;;;;;4802552;29;88058;-75
2022/11/21 10:21:05;;;;;;;0.73;0.10;;;12.70;64.60;;;;;;4797612;29;86735;-77
2022/11/21 10:23:39;;;;;;;0.30;0.00;;;12.80;63.70;;;;;;4801344;29;87435;-76
2022/11/21 10:26:33;;;;;;;0.40;0.05;;;12.80;64.10;;;;;;4806764;29;87006;-78
2022/11/21 10:29:13;;;;;;;0.82;0.00;;;12.70;64.30;;;;;;4808795;29;87183;-75
2022/11/21 10:31:42;;;;;;;1.40;0.08;;;12.80;64.90;;;;;;4806861;29;87192;-76
2022/11/21 10:34:22;;;;;;;2.50;0.10;;;12.70;64.80;;;;;;4808309;29;86375;-76
2022/11/21 10:36:52;;;;;;;0.82;0.05;;;12.50;64.80;;;;;;4801812;29;86319;-75
2022/11/21 10:39:40;;;;;;;3.20;0.10;;;12.10;65.30;;;;;;4807316;29;88302;-77
2022/11/21 10:42:35;;;;;;;2.60;0.00;;;11.80;67.10;;;;;;4807892;29;87508;-76
2022/11/21 10:45:18;;;;;;;1.88;0.10;;;11.60;68.10;;;;;;4789781;29;87333;-76
2022/11/21 10:47:48;;;;;;;0.95;0.10;;;11.50;68.80;;;;;;4809648;29;88226;-76
2022/11/21 10:50:51;;;;;;;2.05;0.10;;;11.50;70.20;;;;;;4809418;29;86605;-78
2022/11/21 10:56:12;;;;;;;1.75;0.10;;;11.60;70.00;;;;;;4799186;29;87099;-76
2022/11/21 10:58:46;;;;;;;0.80;0.10;;;11.70;70.00;;;;;;4809417;29;86204;-76
2022/11/21 11:01:26;;;;;;;2.03;0.10;;;11.80;70.60;;;;;;4807666;29;87110;-75
2022/11/21 11:04:11;;;;;;;2.35;0.10;;;11.80;67.40;;;;;;4807090;29;86311;-76
2022/11/21 11:06:41;;;;;;;2.17;0.10;;;11.80;67.50;;;;;;4806284;29;88162;-75
2022/11/21 11:09:45;;;;;;;0.30;0.00;;;11.80;66.90;;;;;;4805812;29;86301;-76
2022/11/21 11:13:32;;;;;;;0.43;0.00;;;11.70;66.90;;;;;;4808481;29;87256;-76
2022/11/21 11:15:20;;;;;;;0.82;0.00;;;11.80;67.60;;;;;;4803651;29;88127;-77
2022/11/21 11:17:53;;;;;;;0.82;0.00;;;12.00;66.90;;;;;;4807422;29;86647;-76
2022/11/21 11:20:29;;;;;;;0.38;0.03;;;12.20;64.80;;;;;;4803490;29;87359;-76
2022/11/21 11:22:55;;;;;;;1.05;0.10;;;12.10;64.50;;;;;;4804440;29;88168;-77
2022/11/21 11:25:22;;;;;;;1.08;0.03;;;11.90;65.20;;;;;;4800961;29;86770;-77
2022/11/21 11:27:48;;;;;;;0.93;0.10;;;12.00;66.70;;;;;;4804811;29;86256;-76
2022/11/21 11:30:18;;;;;;;0.75;0.00;;;12.00;65.40;;;;;;4800715;29;86756;-76
2022/11/21 11:32:44;;;;;;;0.50;0.00;;;12.00;65.80;;;;;;4800260;29;88319;-78
2022/11/21 11:35:20;;;;;;;0.50;0.00;;;11.90;65.70;;;;;;4802638;29;88392;-76
2022/11/21 11:38:07;;;;;;;0.55;0.03;;;11.90;66.90;;;;;;4806163;29;87203;-76
2022/11/21 11:40:37;;;;;;;0.75;0.00;;;12.00;66.30;;;;;;4802809;29;87069;-76
2022/11/21 11:52:31;;;;;;;0.50;0.00;;;11.80;67.80;;;;;;4804737;29;86080;-76
2022/11/21 11:55:12;;;;;;;0.73;0.10;;;11.70;68.20;;;;;;4804025;29;86834;-76
2022/11/21 11:57:40;;;;;;;1.05;0.10;;;11.80;68.40;;;;;;4795549;29;87327;-76
2022/11/21 12:00:22;;;;;;;5.45;0.10;;;12.00;68.20;;;;;;4801494;29;87197;-78
2022/11/21 12:03:17;;;;;;;1.85;0.10;;;12.10;68.60;;;;;;4796436;29;86793;-78
2022/11/21 12:06:11;;;;;;;0.90;0.10;;;12.30;67.50;;;;;;4793541;29;87747;-77
2022/11/21 12:08:52;;;;;;;1.65;0.10;;;12.20;66.70;;;;;;4799450;29;86661;-75
2022/11/21 12:12:07;;;;;;;1.17;0.10;;;12.20;67.10;;;;;;4799887;29;86950;-77
2022/11/21 12:17:39;;;;;;;0.25;0.00;;;12.00;66.50;;;;;;4801513;29;86861;-77
2022/11/21 12:20:15;;;;;;;1.35;0.10;;;11.90;68.10;;;;;;4801910;29;87457;-76
2022/11/21 12:22:41;;;;;;;1.63;0.10;;;11.80;66.80;;;;;;4797679;29;86568;-77
2022/11/21 12:25:11;;;;;;;1.05;0.10;;;11.80;68.30;;;;;;4800921;29;87243;-76
2022/11/21 12:27:39;;;;;;;;;;;11.70;66.80;;;;;;4814636;29;88457;-75
2022/11/21 12:30:22;;;;;;;2.25;0.10;;;11.70;67.00;;;;;;4805271;29;87464;-75
2022/11/21 12:33:06;;;;;;;0.77;0.03;;;11.60;66.90;;;;;;4802415;29;86812;-74
2022/11/21 12:35:35;;;;;;;0.90;0.00;;;11.50;65.60;;;;;;4799075;29;86773;-75
2022/11/21 12:38:12;;;;;;;0.75;0.00;;;11.50;66.00;;;;;;4808041;29;87475;-75
2022/11/21 12:43:56;;;;;;;1.17;0.10;;;11.40;65.20;;;;;;4803103;29;86822;-74
2022/11/21 12:46:34;;;;;;;0.20;0.00;;;11.40;64.90;;;;;;4790275;29;86432;-75
2022/11/21 12:55:22;;;;;;;1.33;0.10;;;11.20;65.80;;;;;;4796875;29;87754;-74
2022/11/21 12:58:25;;;;;;;2.05;0.05;;;11.30;66.50;;;;;;4790239;29;86845;-75
2022/11/21 13:01:10;;;;;;;;;;;11.10;65.60;;;;;;4789962;29;86737;-74
2022/11/21 13:03:54;;;;;;;0.65;0.10;;;11.00;66.30;;;;;;4805772;29;86336;-75
2022/11/21 13:06:24;;;;;;;1.30;0.10;;;10.90;66.70;;;;;;4794012;29;86243;-74
2022/11/21 13:08:52;;;;;;;1.90;0.10;;;10.90;66.70;;;;;;4788259;29;86990;-75
2022/11/21 13:12:00;;;;;;;2.47;0.10;;;10.90;66.00;;;;;;4798901;29;87084;-76
2022/11/21 13:14:30;;;;;;;3.63;0.20;;;10.90;66.40;;;;;;4795636;29;87456;-75
2022/11/21 13:17:25;;;;;;;0.85;0.08;;;10.90;67.00;;;;;;4788091;29;86232;-74
2022/11/21 13:19:56;;;;;;;2.58;0.20;;;10.90;66.60;;;;;;4794862;29;86672;-74
2022/11/21 13:22:34;;;;;;;0.75;0.00;;;10.90;66.70;;;;;;4790000;29;87935;-76
2022/11/21 13:25:10;;;;;;;0.60;0.00;;;10.90;66.10;;;;;;4804453;29;87798;-75
2022/11/21 13:27:41;;;;;;;0.90;0.00;;;10.80;64.90;;;;;;4805271;29;86310;-76
2022/11/21 13:30:10;;;;;;;0.68;0.00;;;10.80;65.60;;;;;;4805451;29;86836;-74
2022/11/21 13:32:53;;;;;;;0.70;0.10;;;10.80;64.90;;;;;;4802432;29;87065;-75
2022/11/21 13:35:18;;;;;;;0.65;0.10;;;10.80;65.10;;;;;;4803489;29;87461;-75
2022/11/21 13:38:03;;;;;;;1.38;0.00;;;10.80;66.10;;;;;;4805295;29;86839;-76
2022/11/21 13:40:29;;;;;;;2.13;0.13;;;10.80;66.40;;;;;;4799525;29;85955;-74
2022/11/21 13:43:18;;;;;;;1.05;0.00;;;10.80;66.80;;;;;;4804871;29;87057;-74
2022/11/21 13:45:49;;;;;;;1.58;0.10;;;10.70;66.50;;;;;;4804028;29;87232;-74
2022/11/21 13:48:18;;;;;;;1.17;0.20;;;10.70;67.50;;;;;;4804807;29;87537;-74
2022/11/21 13:50:51;;;;;;;2.30;0.10;;;10.60;67.50;;;;;;4808077;29;86271;-74
2022/11/21 13:53:48;;;;;;;1.98;0.10;;;10.60;67.20;;;;;;4808154;29;87270;-74
2022/11/21 13:56:35;;;;;;;0.85;0.05;;;10.50;67.00;;;;;;4807131;29;86719;-74
2022/11/21 13:59:11;;;;;;;2.65;0.10;;;10.50;67.10;;;;;;4808233;29;87243;-75
2022/11/21 14:01:51;;;;;;;1.85;0.10;;;10.40;67.30;;;;;;4797188;29;87343;-75
2022/11/21 14:04:31;;;;;;;1.90;0.10;;;10.40;67.60;;;;;;4807228;29;87788;-75
2022/11/21 14:07:27;;;;;;;1.38;0.10;;;10.40;68.10;;;;;;4803217;29;86791;-75
2022/11/21 14:09:56;;;;;;;1.40;0.20;;;10.50;68.40;;;;;;4793103;29;87233;-75
2022/11/21 14:12:23;;;;;;;1.85;0.10;;;10.50;68.00;;;;;;4807968;29;86294;-74
2022/11/21 14:14:54;;;;;;;2.10;0.10;;;10.50;68.20;;;;;;4795171;29;89900;-75
2022/11/21 14:17:38;;;;;;;1.10;0.13;;;10.50;67.70;;;;;;4800747;29;87446;-75
2022/11/21 14:20:24;;;;;;;3.10;0.10;;;10.40;68.90;;;;;;4804007;29;86325;-75
2022/11/21 14:22:57;;;;;;;2.22;0.10;;;10.40;69.30;;;;;;4794935;29;86961;-74
2022/11/21 14:25:32;;;;;;;0.52;0.10;;;10.40;69.50;;;;;;4792402;29;87041;-74
2022/11/21 14:27:59;;;;;;;4.63;0.10;;;10.30;69.20;;;;;;4803903;29;86515;-74
2022/11/21 14:30:32;;;;;;;1.63;0.10;;;10.30;69.10;;;;;;4791729;29;86787;-76
2022/11/21 14:33:20;;;;;;;2.70;0.10;;;10.20;69.50;;;;;;4803093;29;85485;-74
2022/11/21 14:35:51;;;;;;;7.72;0.35;;;10.20;70.00;;;;;;4804243;29;86623;-75
2022/11/21 14:38:20;;;;;;;1.90;0.30;;;10.10;70.30;;;;;;4806242;29;87878;-74
2022/11/21 14:40:45;;;;;;;4.93;0.15;;;10.00;70.40;;;;;;4790787;29;87233;-75
2022/11/21 14:43:32;;;;;;;0.88;0.10;;;9.90;70.40;;;;;;4803058;29;86629;-75
2022/11/21 14:45:58;;;;;;;1.85;0.10;;;9.80;70.40;;;;;;4799575;29;87455;-74
2022/11/21 14:48:25;;;;;;;0.93;0.20;;;9.70;70.80;;;;;;4800287;29;87248;-75
2022/11/21 14:50:52;;;;;;;1.00;0.13;;;9.70;70.20;;;;;;4798881;29;86869;-74
2022/11/21 14:53:17;;;;;;;1.33;0.10;;;9.70;71.10;;;;;;4806359;29;86972;-75
2022/11/21 14:55:50;;;;;;;2.67;0.20;;;9.70;71.20;;;;;;4802009;29;86752;-75
2022/11/21 14:58:16;;;;;;;1.15;0.10;;;9.70;71.10;;;;;;4802630;29;86181;-75
2022/11/21 15:01:01;;;;;;;0.85;0.13;;;9.70;71.60;;;;;;4803564;29;86816;-75
2022/11/21 15:03:26;;;;;;;4.13;0.22;;;9.70;71.90;;;;;;4807672;29;86280;-75
2022/11/21 15:06:09;;;;;;;4.93;0.20;;;9.70;71.90;;;;;;4804520;29;90086;-74
2022/11/21 15:08:37;;;;;;;5.32;0.20;;;9.60;72.40;;;;;;4807150;29;87935;-75
2022/11/21 15:11:03;;;;;;;2.75;0.20;;;9.60;72.60;;;;;;4802867;29;86558;-74
2022/11/21 15:13:33;;;;;;;4.30;0.50;;;9.50;72.90;;;;;;4802425;29;86448;-75
2022/11/21 15:15:59;;;;;;;3.67;0.40;;;9.50;73.50;;;;;;4800894;29;87615;-74
2022/11/21 15:18:28;;;;;;;2.10;0.20;;;9.40;73.80;;;;;;4800605;29;87335;-75
2022/11/21 15:21:01;;;;;;;4.35;0.30;;;9.30;74.20;;;;;;4799427;29;86993;-74
2022/11/21 15:23:28;;;;;;;7.00;0.30;;;9.20;74.50;;;;;;4805362;29;85588;-74
2022/11/21 15:25:54;;;;;;;3.70;0.30;;;9.10;75.30;;;;;;4796481;29;87246;-74
2022/11/21 15:28:21;;;;;;;3.97;0.40;;;9.10;75.40;;;;;;4801390;29;86245;-75
2022/11/21 15:30:46;;;;;;;4.70;0.50;;;9.00;75.60;;;;;;4792729;29;87185;-74
2022/11/21 15:33:16;;;;;;;2.80;0.40;;;8.90;75.90;;;;;;4802229;29;86924;-75
2022/11/21 15:35:42;;;;;;;8.05;0.40;;;8.80;76.30;;;;;;4804601;29;87737;-74
2022/11/21 15:38:25;;;;;;;4.18;0.57;;;8.80;76.50;;;;;;4792902;29;87131;-75
2022/11/21 15:40:55;;;;;;;4.57;0.90;;;8.70;77.40;;;;;;4802071;29;87055;-75
2022/11/21 15:43:43;;;;;;;2.83;0.40;;;8.70;77.90;;;;;;4799735;29;86789;-74
2022/11/21 15:46:19;;;;;;;5.70;0.65;;;8.70;77.90;;;;;;4793599;29;87774;-75
2022/11/21 15:48:57;;;;;;;8.57;1.00;;;8.60;77.90;;;;;;4807276;29;87027;-75
2022/11/21 15:51:31;;;;;;;5.90;1.08;;;8.50;78.60;;;;;;4801181;29;86966;-75
2022/11/21 15:53:57;;;;;;;7.15;1.10;;;8.50;78.40;;;;;;4796263;29;87054;-74
2022/11/21 15:56:22;;;;;;;4.28;1.02;;;8.40;78.30;;;;;;4803790;29;88520;-74
2022/11/21 15:58:48;;;;;;;3.63;0.90;;;8.40;79.70;;;;;;4798500;29;87525;-74
2022/11/21 16:01:21;;;;;;;4.05;1.02;;;8.40;80.00;;;;;;4802914;29;86820;-74
2022/11/21 16:03:49;;;;;;;4.32;0.95;;;8.30;80.20;;;;;;4801702;29;86717;-75
2022/11/21 16:06:15;;;;;;;6.20;0.93;;;8.30;80.30;;;;;;4803089;29;86970;-74
2022/11/21 16:08:41;;;;;;;8.00;1.05;;;8.20;79.80;;;;;;4797993;29;87062;-76
2022/11/21 16:11:19;;;;;;;4.95;1.00;;;8.20;80.00;;;;;;4797657;29;86273;-75
2022/11/21 16:13:52;;;;;;;8.82;1.33;;;8.10;80.30;;;;;;4804245;29;85636;-76
2022/11/21 16:16:20;;;;;;;5.00;1.30;;;8.10;80.00;;;;;;4794888;29;87352;-75
2022/11/21 16:18:46;;;;;;;6.10;0.98;;;8.00;80.20;;;;;;4794358;29;87615;-74
2022/11/21 16:21:12;;;;;;;5.97;0.90;;;8.00;80.70;;;;;;4799712;29;87942;-75
2022/11/21 16:23:38;;;;;;;5.97;0.98;;;7.90;80.80;;;;;;4795195;29;86881;-74
2022/11/21 16:26:06;;;;;;;5.63;0.95;;;7.80;80.80;;;;;;4796164;29;87356;-74
2022/11/21 16:28:32;;;;;;;6.63;0.80;;;7.80;81.00;;;;;;4796915;29;86381;-74
2022/11/21 16:30:58;;;;;;;4.88;0.68;;;7.80;81.10;;;;;;4797528;29;86697;-75
2022/11/21 16:33:24;;;;;;;5.22;0.88;;;7.70;81.40;;;;;;4796595;29;86427;-74
2022/11/21 16:35:53;;;;;;;5.45;0.85;;;7.70;82.40;;;;;;4794720;29;86423;-74
2022/11/21 16:38:21;;;;;;;8.55;0.57;;;7.60;81.70;;;;;;4790811;29;87589;-74
2022/11/21 16:41:02;;;;;;;7.50;1.40;;;7.60;81.80;;;;;;4795429;29;86919;-74
2022/11/21 16:43:28;;;;;;;6.80;1.13;;;7.60;82.10;;;;;;4798139;29;86370;-75
2022/11/21 16:45:54;;;;;;;6.43;1.63;;;7.50;82.50;;;;;;4800588;29;89228;-75
2022/11/21 16:48:21;;;;;;;5.30;1.05;;;7.50;82.80;;;;;;4796962;29;87573;-75
2022/11/21 16:50:47;;;;;;;6.72;1.35;;;7.50;82.40;;;;;;4793554;29;86607;-74
2022/11/21 16:53:13;;;;;;;7.20;1.73;;;7.50;82.60;;;;;;4793886;29;87640;-75
2022/11/21 16:55:39;;;;;;;14.40;3.70;;;7.50;83.10;;;;;;4795154;29;87181;-75
2022/11/21 16:58:05;;;;;;;12.57;4.97;;;7.50;82.30;;;;;;4795104;29;86779;-75
2022/11/21 17:00:31;;;;;;;12.00;4.63;;;7.50;82.50;;;;;;4799880;29;87739;-74
2022/11/21 17:02:57;;;;;;;8.68;3.20;;;7.50;82.70;;;;;;4801900;29;86074;-75
2022/11/21 17:05:23;;;;;;;8.43;2.10;;;7.40;82.90;;;;;;4794973;29;87206;-76
2022/11/21 17:07:49;;;;;;;7.78;1.83;;;7.40;82.80;;;;;;4796694;29;87911;-75
2022/11/21 17:10:15;;;;;;;6.13;1.45;;;7.40;82.90;;;;;;4790420;29;87793;-75
2022/11/21 17:12:42;;;;;;;5.25;1.40;;;7.30;82.80;;;;;;4792703;29;86875;-75
2022/11/21 17:15:12;;;;;;;4.55;1.10;;;7.40;83.10;;;;;;4790155;29;87420;-75
2022/11/21 17:17:39;;;;;;;7.22;1.40;;;7.30;82.60;;;;;;4791008;29;87032;-76
2022/11/21 17:20:07;;;;;;;4.95;1.10;;;7.30;82.70;;;;;;4788455;29;86540;-74
2022/11/21 17:22:33;;;;;;;3.97;0.93;;;7.30;82.60;;;;;;4794821;29;86916;-75
2022/11/21 17:24:59;;;;;;;8.23;0.98;;;7.40;82.60;;;;;;4797051;29;86685;-74
2022/11/21 17:27:25;;;;;;;4.43;0.82;;;7.40;82.60;;;;;;4799895;29;87113;-74
2022/11/21 17:29:50;;;;;;;6.93;1.70;;;7.30;82.50;;;;;;4797063;29;86430;-75
2022/11/21 17:32:16;;;;;;;9.27;1.50;;;7.30;83.00;;;;;;4796569;29;86865;-75
2022/11/21 17:34:42;;;;;;;4.90;1.30;;;7.30;83.20;;;;;;4801513;29;88570;-74
2022/11/21 17:37:08;;;;;;;10.23;2.03;;;7.30;83.60;;;;;;4800101;29;87104;-75
2022/11/21 17:39:34;;;;;;;7.00;1.65;;;7.20;84.10;;;;;;4799164;29;87604;-75